Time;durP1;ratioP1;P1;durP2;ratioP2;P2;SDS_P1;SDS_P2;PMS_P1;PMS_P2;Temp;Humidity;BMP_temperature;BMP_pressure;BME280_temperature;BME280_humidity;BME280_pressure;Samples;Min_cycle;Max_cycle;Signal;HPM_P1;HPM_P2
2022/06/08 00:01:23;;;;;;;8.57;5.78;;;15.80;65.10;;;;;;2301172;58;21062;-77
2022/06/08 00:03:54;;;;;;;9.32;5.80;;;15.80;65.30;;;;;;2299543;58;21070;-77
2022/06/08 00:06:22;;;;;;;10.77;5.97;;;15.80;65.30;;;;;;2299966;58;21099;-78
2022/06/08 00:08:50;;;;;;;9.05;5.45;;;15.80;65.30;;;;;;2300286;58;21126;-78
2022/06/08 00:11:19;;;;;;;18.42;5.62;;;15.70;65.30;;;;;;2300417;58;21142;-78
2022/06/08 00:13:46;;;;;;;7.65;5.10;;;15.70;65.30;;;;;;2300795;58;21134;-77
2022/06/08 00:16:14;;;;;;;9.23;5.60;;;15.70;65.30;;;;;;2299228;58;21635;-76
2022/06/08 00:18:44;;;;;;;8.43;5.60;;;15.70;65.40;;;;;;2299309;58;21054;-77
2022/06/08 00:21:13;;;;;;;12.40;5.62;;;15.60;65.40;;;;;;2300003;58;21062;-77
2022/06/08 00:23:41;;;;;;;10.13;5.72;;;15.60;65.80;;;;;;2300374;58;21047;-77
2022/06/08 00:26:09;;;;;;;9.85;5.90;;;15.60;66.10;;;;;;2299771;58;21061;-77
2022/06/08 00:28:36;;;;;;;9.52;6.35;;;15.50;66.30;;;;;;2300410;58;21145;-78
2022/06/08 00:31:04;;;;;;;9.45;6.25;;;15.50;66.40;;;;;;2299500;58;21050;-76
2022/06/08 00:33:31;;;;;;;10.25;6.00;;;15.50;66.40;;;;;;2299979;58;21065;-77
2022/06/08 00:35:59;;;;;;;7.62;5.22;;;15.50;66.40;;;;;;2536717;54;21724;-77
2022/06/08 00:38:26;;;;;;;10.25;5.65;;;15.40;66.30;;;;;;2300345;58;21062;-77
2022/06/08 00:41:07;;;;;;;10.82;6.00;;;15.40;66.50;;;;;;2300457;58;21122;-76
2022/06/08 00:43:36;;;;;;;9.95;6.37;;;15.40;66.50;;;;;;2300239;58;21549;-77
2022/06/08 00:46:05;;;;;;;9.50;5.85;;;15.40;66.30;;;;;;2299790;58;21051;-77
2022/06/08 00:48:38;;;;;;;8.13;5.62;;;15.40;66.20;;;;;;2299573;58;21061;-77
2022/06/08 00:51:05;;;;;;;;;;;15.40;66.20;;;;;;2303490;58;21105;-78
2022/06/08 00:53:37;;;;;;;8.30;5.18;;;15.50;66.10;;;;;;2300392;58;20076;-77
2022/06/08 00:56:09;;;;;;;9.30;6.22;;;15.40;65.40;;;;;;2537604;54;21617;-76
2022/06/08 00:58:38;;;;;;;8.80;6.35;;;15.30;65.70;;;;;;2300119;58;21058;-77
2022/06/08 01:01:06;;;;;;;9.18;6.45;;;15.30;65.90;;;;;;2300464;58;21078;-77
2022/06/08 01:03:33;;;;;;;10.60;6.95;;;15.30;66.10;;;;;;2299008;58;21042;-77
2022/06/08 01:06:04;;;;;;;9.57;6.93;;;15.20;66.00;;;;;;2299204;58;21062;-78
2022/06/08 01:08:37;;;;;;;11.18;7.30;;;15.20;66.10;;;;;;2300675;58;21648;-77
2022/06/08 01:11:06;;;;;;;;;;;15.20;66.20;;;;;;2303544;58;21114;-77
2022/06/08 01:13:36;;;;;;;11.18;7.22;;;15.40;66.00;;;;;;2300421;58;20315;-77
2022/06/08 01:16:05;;;;;;;8.20;6.25;;;15.30;65.60;;;;;;2300223;58;21130;-77
2022/06/08 01:18:34;;;;;;;14.60;7.55;;;15.20;66.00;;;;;;2299391;58;21125;-77
2022/06/08 01:21:45;;;;;;;12.35;7.22;;;15.10;66.30;;;;;;2299562;58;21126;-77
2022/06/08 01:24:13;;;;;;;12.30;7.55;;;15.10;66.80;;;;;;2300316;58;21054;-77
2022/06/08 01:26:49;;;;;;;9.95;6.80;;;15.10;66.50;;;;;;2537613;54;21549;-77
2022/06/08 01:29:23;;;;;;;11.80;6.82;;;15.00;66.80;;;;;;2300564;58;21154;-77
2022/06/08 01:32:03;;;;;;;9.00;6.90;;;15.00;66.90;;;;;;2300124;58;21130;-78
2022/06/08 01:34:39;;;;;;;11.63;6.93;;;15.00;67.00;;;;;;2300296;58;21054;-77
2022/06/08 01:37:17;;;;;;;11.48;6.40;;;15.00;67.00;;;;;;2299697;58;21537;-77
2022/06/08 01:39:59;;;;;;;14.40;7.53;;;14.90;67.30;;;;;;2299634;58;21083;-77
2022/06/08 01:42:38;;;;;;;12.98;7.85;;;14.90;67.40;;;;;;2300155;58;21149;-77
2022/06/08 01:45:29;;;;;;;10.23;7.57;;;15.00;67.50;;;;;;2300032;58;21568;-77
2022/06/08 01:48:09;;;;;;;13.55;7.78;;;14.90;67.60;;;;;;2300324;58;21640;-77
2022/06/08 01:50:51;;;;;;;10.60;6.87;;;14.90;67.50;;;;;;2300248;58;21051;-77
2022/06/08 01:53:27;;;;;;;11.65;7.40;;;14.90;67.60;;;;;;2299967;58;21115;-77
2022/06/08 01:55:58;;;;;;;10.57;7.10;;;14.90;67.80;;;;;;2536233;54;21050;-77
2022/06/08 01:58:38;;;;;;;10.60;7.20;;;14.90;67.80;;;;;;2537110;54;21616;-77
2022/06/08 02:01:14;;;;;;;11.57;7.10;;;14.80;67.80;;;;;;2300423;58;21603;-77
2022/06/08 02:03:51;;;;;;;10.95;7.93;;;14.80;67.60;;;;;;2300479;58;21113;-77
2022/06/08 02:06:25;;;;;;;9.98;6.80;;;14.80;67.80;;;;;;2537200;54;21050;-77
2022/06/08 02:08:53;;;;;;;;;;;14.80;67.70;;;;;;2302984;58;21057;-77
2022/06/08 02:11:28;;;;;;;10.13;5.82;;;14.90;67.60;;;;;;2299935;58;20143;-77
2022/06/08 02:13:59;;;;;;;11.15;6.28;;;14.80;67.50;;;;;;2300237;58;21557;-78
2022/06/08 02:16:34;;;;;;;10.63;6.90;;;14.70;68.00;;;;;;2300439;58;21059;-78
2022/06/08 02:19:08;;;;;;;11.23;6.97;;;14.70;68.20;;;;;;2299937;58;21070;-77
2022/06/08 02:21:42;;;;;;;12.57;7.25;;;14.70;68.30;;;;;;2299402;58;21709;-77
2022/06/08 02:24:15;;;;;;;10.52;6.70;;;14.60;68.10;;;;;;2300305;58;21054;-78
2022/06/08 02:26:47;;;;;;;8.00;6.30;;;14.60;68.20;;;;;;2300063;58;21213;-77
2022/06/08 02:29:16;;;;;;;9.93;6.22;;;14.50;68.20;;;;;;2300087;58;21561;-77
2022/06/08 02:31:48;;;;;;;8.73;6.12;;;14.50;68.50;;;;;;2300320;58;21615;-77
2022/06/08 02:34:33;;;;;;;7.55;5.95;;;14.50;68.80;;;;;;2300166;58;21078;-77
2022/06/08 02:37:10;;;;;;;10.32;6.10;;;14.40;69.00;;;;;;2299592;58;21129;-78
2022/06/08 02:39:41;;;;;;;11.10;7.35;;;14.40;69.00;;;;;;2299534;58;21165;-77
2022/06/08 02:42:14;;;;;;;12.00;7.18;;;14.40;69.00;;;;;;2537609;54;21059;-77
2022/06/08 02:44:44;;;;;;;8.48;6.68;;;14.40;69.10;;;;;;2300635;58;21063;-77
2022/06/08 02:47:20;;;;;;;7.47;6.18;;;14.30;69.20;;;;;;2300139;58;21058;-77
2022/06/08 02:49:47;;;;;;;8.68;6.18;;;14.30;69.40;;;;;;2300407;58;21619;-77
2022/06/08 02:52:21;;;;;;;6.75;5.87;;;14.30;69.60;;;;;;2299330;58;22139;-77
2022/06/08 02:54:49;;;;;;;9.70;6.82;;;14.20;69.60;;;;;;2300479;58;21046;-77
2022/06/08 02:57:30;;;;;;;8.40;6.47;;;14.20;69.30;;;;;;2299822;58;21129;-77
2022/06/08 03:00:05;;;;;;;7.68;5.45;;;14.20;69.30;;;;;;2300181;58;21109;-78
2022/06/08 03:02:38;;;;;;;9.52;6.43;;;14.20;69.40;;;;;;2300622;58;21067;-77
2022/06/08 03:05:11;;;;;;;8.82;5.80;;;14.20;69.40;;;;;;2537667;54;21075;-77
2022/06/08 03:07:44;;;;;;;10.82;6.45;;;14.20;69.30;;;;;;2299994;58;21070;-77
2022/06/08 03:10:14;;;;;;;7.35;5.82;;;14.20;69.20;;;;;;2299614;58;21173;-78
2022/06/08 03:12:48;;;;;;;10.23;6.37;;;14.10;69.20;;;;;;2300152;58;21066;-78
2022/06/08 03:15:21;;;;;;;10.50;6.62;;;14.10;69.20;;;;;;2299489;58;21400;-79
2022/06/08 03:20:27;;;;;;;10.88;6.35;;;14.10;69.20;;;;;;2604129;53;22671;-78
2022/06/08 03:22:56;;;;;;;7.40;5.32;;;14.00;69.10;;;;;;2346153;57;21511;-77
2022/06/08 03:25:24;;;;;;;10.07;6.32;;;14.00;69.30;;;;;;2345333;57;21128;-79
2022/06/08 03:27:53;;;;;;;8.13;5.05;;;14.00;69.10;;;;;;2349639;56;21571;-77
2022/06/08 03:30:22;;;;;;;7.32;5.37;;;14.00;69.40;;;;;;2373383;56;21135;-78
2022/06/08 03:32:50;;;;;;;8.23;6.60;;;14.00;69.10;;;;;;2373313;56;21047;-77
2022/06/08 03:35:17;;;;;;;8.52;5.65;;;14.00;69.10;;;;;;2373541;56;21995;-77
2022/06/08 03:37:45;;;;;;;9.90;6.05;;;14.00;69.10;;;;;;2373561;56;21102;-77
2022/06/08 03:40:14;;;;;;;11.12;6.68;;;14.00;69.10;;;;;;2373436;56;21051;-77
2022/06/08 03:42:41;;;;;;;14.10;7.70;;;14.00;69.10;;;;;;2373860;56;21027;-77
2022/06/08 03:45:10;;;;;;;10.10;7.55;;;14.00;69.00;;;;;;2373718;56;21131;-77
2022/06/08 03:47:41;;;;;;;10.75;6.50;;;14.00;69.30;;;;;;2372895;56;21108;-77
2022/06/08 03:50:12;;;;;;;11.40;7.40;;;14.00;69.90;;;;;;2373869;56;22130;-77
2022/06/08 03:52:43;;;;;;;10.25;8.18;;;14.00;69.90;;;;;;2373502;56;21051;-77
2022/06/08 03:55:12;;;;;;;8.75;6.93;;;14.10;70.00;;;;;;2372023;56;21604;-77
2022/06/08 03:57:44;;;;;;;11.48;7.53;;;14.00;70.00;;;;;;2373611;56;21127;-77
2022/06/08 04:00:15;;;;;;;10.55;7.50;;;14.10;70.30;;;;;;2374026;56;21134;-77
2022/06/08 04:02:44;;;;;;;9.13;6.53;;;14.10;70.50;;;;;;2373708;56;21098;-77
2022/06/08 04:05:12;;;;;;;9.73;6.03;;;14.10;70.70;;;;;;2373845;56;21643;-77
2022/06/08 04:07:40;;;;;;;10.32;6.57;;;14.10;71.10;;;;;;2373226;56;21114;-77
2022/06/08 04:10:09;;;;;;;10.07;6.32;;;14.10;71.00;;;;;;2373653;56;21051;-77
2022/06/08 04:15:41;;;;;;;12.07;7.60;;;14.20;71.10;;;;;;2604223;53;22086;-79
2022/06/08 04:18:11;;;;;;;11.23;8.02;;;14.20;71.30;;;;;;2353097;56;21403;-79
2022/06/08 04:20:40;;;;;;;9.73;6.78;;;14.20;71.30;;;;;;2374255;56;21047;-78
2022/06/08 04:23:08;;;;;;;9.13;6.68;;;14.20;71.30;;;;;;2374006;56;21552;-78
2022/06/08 04:25:40;;;;;;;7.45;5.78;;;14.20;71.70;;;;;;2374123;56;21589;-79
2022/06/08 04:28:08;;;;;;;7.60;5.68;;;14.20;72.00;;;;;;2374451;56;21113;-79
2022/06/08 04:30:35;;;;;;;9.82;5.93;;;14.30;72.30;;;;;;2372179;56;21106;-78
2022/06/08 04:33:03;;;;;;;13.18;7.15;;;14.30;72.60;;;;;;2374067;56;21110;-78
2022/06/08 04:35:32;;;;;;;10.23;6.62;;;14.30;72.40;;;;;;2374026;56;21106;-79
2022/06/08 04:38:00;;;;;;;9.75;6.97;;;14.30;72.50;;;;;;2371770;56;21035;-78
2022/06/08 04:40:29;;;;;;;13.20;6.97;;;14.30;72.60;;;;;;2373233;56;21047;-78
2022/06/08 04:42:57;;;;;;;12.48;7.28;;;14.40;72.70;;;;;;2373923;56;21035;-78
2022/06/08 04:45:25;;;;;;;8.10;6.43;;;14.40;72.90;;;;;;2374076;56;21054;-77
2022/06/08 04:47:53;;;;;;;13.62;7.97;;;14.40;72.80;;;;;;2374109;56;21577;-78
2022/06/08 04:50:21;;;;;;;12.60;7.47;;;14.50;72.60;;;;;;2373988;56;22148;-78
2022/06/08 04:52:49;;;;;;;10.85;7.70;;;14.50;72.80;;;;;;2374003;56;21054;-77
2022/06/08 04:55:17;;;;;;;12.32;7.22;;;14.50;72.90;;;;;;2373535;56;21106;-77
2022/06/08 04:57:45;;;;;;;12.32;7.05;;;14.50;72.90;;;;;;2372677;56;21055;-78
2022/06/08 05:00:17;;;;;;;10.65;7.15;;;14.60;72.90;;;;;;2372437;56;21034;-77
2022/06/08 05:02:48;;;;;;;7.20;5.78;;;14.60;73.20;;;;;;2373617;56;21118;-78
2022/06/08 05:05:19;;;;;;;10.52;6.82;;;14.60;73.30;;;;;;2373839;56;21125;-78
2022/06/08 05:07:46;;;;;;;9.43;6.47;;;14.70;73.60;;;;;;2373972;56;21165;-79
2022/06/08 05:10:14;;;;;;;10.60;6.62;;;14.70;73.60;;;;;;2374274;56;21054;-78
2022/06/08 05:12:42;;;;;;;10.07;7.55;;;14.70;73.50;;;;;;2372632;56;22294;-79
2022/06/08 05:15:15;;;;;;;11.48;7.45;;;14.70;73.70;;;;;;2371876;56;21569;-78
2022/06/08 05:17:43;;;;;;;10.25;6.60;;;14.80;73.80;;;;;;2373070;56;21659;-78
2022/06/08 05:20:13;;;;;;;10.40;7.07;;;14.80;73.80;;;;;;2372534;56;21126;-79
2022/06/08 05:22:41;;;;;;;9.25;6.00;;;14.80;73.90;;;;;;2373044;56;21613;-78
2022/06/08 05:25:12;;;;;;;9.20;5.75;;;14.90;74.20;;;;;;2371985;56;21063;-78
2022/06/08 05:27:40;;;;;;;7.97;5.95;;;14.90;74.10;;;;;;2624219;52;21193;-78
2022/06/08 05:30:10;;;;;;;10.13;6.28;;;14.90;74.10;;;;;;2371732;56;21070;-78
2022/06/08 05:32:38;;;;;;;10.05;6.90;;;15.00;74.10;;;;;;2371609;56;21054;-78
2022/06/08 05:35:07;;;;;;;8.95;6.10;;;15.00;74.90;;;;;;2372476;56;21710;-78
2022/06/08 05:37:35;;;;;;;11.02;6.15;;;15.10;74.10;;;;;;2372778;56;21134;-78
2022/06/08 05:40:05;;;;;;;8.38;6.00;;;15.10;73.90;;;;;;2626275;52;21043;-78
2022/06/08 05:42:33;;;;;;;9.73;6.60;;;15.10;74.10;;;;;;2373115;56;21110;-78
2022/06/08 05:45:00;;;;;;;8.82;6.05;;;15.20;74.30;;;;;;2372384;56;21517;-78
2022/06/08 05:47:28;;;;;;;10.32;5.93;;;15.20;74.30;;;;;;2372086;56;21051;-78
2022/06/08 05:49:55;;;;;;;9.57;5.65;;;15.20;74.30;;;;;;2372880;56;21059;-78
2022/06/08 05:52:23;;;;;;;10.18;6.20;;;15.30;73.80;;;;;;2367799;56;21441;-78
2022/06/08 05:54:51;;;;;;;9.57;5.40;;;15.40;73.80;;;;;;2372620;56;21122;-78
2022/06/08 05:57:18;;;;;;;9.52;5.57;;;15.40;73.40;;;;;;2410731;54;21062;-75
2022/06/08 05:59:45;;;;;;;8.52;5.97;;;15.40;73.60;;;;;;2301905;58;21153;-74
2022/06/08 06:02:14;;;;;;;8.25;4.72;;;15.50;73.70;;;;;;2301268;58;21114;-75
2022/06/08 06:04:42;;;;;;;10.45;4.75;;;15.50;72.90;;;;;;2301588;58;21058;-74
2022/06/08 06:07:11;;;;;;;9.48;4.03;;;15.60;72.90;;;;;;2301389;58;21062;-74
2022/06/08 06:09:41;;;;;;;7.97;3.95;;;15.70;73.80;;;;;;2323335;54;21047;-77
2022/06/08 06:12:11;;;;;;;7.45;4.00;;;15.80;72.60;;;;;;2333630;54;21049;-77
2022/06/08 06:14:38;;;;;;;6.65;4.97;;;15.80;72.20;;;;;;2301355;58;21102;-77
2022/06/08 06:17:06;;;;;;;7.15;4.03;;;15.90;72.50;;;;;;2301175;58;21545;-78
2022/06/08 06:19:34;;;;;;;9.40;4.85;;;15.90;72.00;;;;;;2303757;54;21600;-77
2022/06/08 06:22:02;;;;;;;7.87;4.90;;;16.00;72.10;;;;;;2308525;54;21529;-77
2022/06/08 06:24:29;;;;;;;10.02;4.50;;;16.00;72.50;;;;;;2378415;54;21055;-77
2022/06/08 06:26:57;;;;;;;10.05;5.85;;;16.10;72.80;;;;;;2301126;58;21082;-78
2022/06/08 06:29:25;;;;;;;9.02;5.28;;;16.20;72.80;;;;;;2341705;54;21138;-77
2022/06/08 06:31:55;;;;;;;11.52;4.90;;;16.30;72.40;;;;;;2305539;54;21138;-77
2022/06/08 06:34:25;;;;;;;11.98;4.97;;;16.40;71.20;;;;;;2301196;58;21058;-77
2022/06/08 06:36:53;;;;;;;8.55;5.00;;;16.40;70.60;;;;;;2300800;58;21114;-77
2022/06/08 06:39:21;;;;;;;9.68;5.03;;;16.50;70.40;;;;;;2301425;58;21059;-77
2022/06/08 06:41:50;;;;;;;10.40;5.32;;;16.50;70.00;;;;;;2301835;58;21114;-77
2022/06/08 06:44:17;;;;;;;11.85;5.70;;;16.50;70.30;;;;;;2300122;58;21063;-78
2022/06/08 06:46:45;;;;;;;7.40;4.12;;;16.60;70.40;;;;;;2338919;54;21050;-77
2022/06/08 06:49:13;;;;;;;8.43;5.60;;;16.60;66.70;;;;;;2301643;58;21134;-78
2022/06/08 06:51:41;;;;;;;10.02;4.70;;;16.60;67.80;;;;;;2301114;58;21142;-75
2022/06/08 06:54:11;;;;;;;7.55;5.00;;;16.60;68.90;;;;;;2301491;58;21114;-75
2022/06/08 06:56:39;;;;;;;9.40;5.68;;;16.60;68.70;;;;;;2300631;58;21063;-75
2022/06/08 06:59:06;;;;;;;6.53;4.68;;;16.70;69.40;;;;;;2300564;58;21129;-75
2022/06/08 07:01:34;;;;;;;8.02;4.85;;;16.70;69.60;;;;;;2301356;58;21053;-74
2022/06/08 07:04:02;;;;;;;9.25;4.70;;;16.80;67.80;;;;;;2308250;54;21042;-75
2022/06/08 07:06:30;;;;;;;8.98;4.57;;;16.90;68.00;;;;;;2350190;54;21118;-75
2022/06/08 07:08:59;;;;;;;10.63;5.32;;;16.90;69.30;;;;;;2301591;58;21664;-75
2022/06/08 07:11:35;;;;;;;6.40;4.57;;;17.00;69.60;;;;;;2312675;54;21135;-75
2022/06/08 07:14:05;;;;;;;9.65;4.85;;;17.10;69.80;;;;;;2301640;58;21066;-74
2022/06/08 07:16:33;;;;;;;7.20;4.75;;;17.20;68.90;;;;;;2301450;58;21059;-75
2022/06/08 07:19:01;;;;;;;8.27;5.47;;;17.20;68.30;;;;;;2326225;54;21050;-75
2022/06/08 07:21:28;;;;;;;5.40;4.12;;;17.30;68.00;;;;;;2367106;54;21091;-75
2022/06/08 07:23:56;;;;;;;9.77;5.03;;;17.30;68.10;;;;;;2301364;58;21062;-75
2022/06/08 07:29:02;;;;;;;7.22;5.15;;;17.40;68.70;;;;;;2339940;57;22095;-75
2022/06/08 07:31:29;;;;;;;8.70;4.62;;;17.50;68.80;;;;;;2347798;57;21050;-75
2022/06/08 07:33:56;;;;;;;7.82;5.40;;;17.50;67.50;;;;;;2347083;57;21115;-75
2022/06/08 07:36:24;;;;;;;6.75;4.72;;;17.50;67.60;;;;;;2347236;57;21166;-75
2022/06/08 07:38:51;;;;;;;9.55;5.47;;;17.50;68.20;;;;;;2346986;57;21042;-75
2022/06/08 07:41:19;;;;;;;14.05;7.00;;;17.50;68.20;;;;;;2347787;57;21061;-75
2022/06/08 07:43:46;;;;;;;10.10;5.15;;;17.60;68.30;;;;;;2346655;57;21733;-75
2022/06/08 07:46:15;;;;;;;9.10;5.82;;;17.60;68.10;;;;;;2347260;57;21045;-75
2022/06/08 07:51:28;;;;;;;8.13;5.65;;;17.60;68.60;;;;;;2347635;53;21062;-75
2022/06/08 07:53:55;;;;;;;9.95;6.10;;;17.60;68.50;;;;;;2347462;57;21037;-74
2022/06/08 07:56:23;;;;;;;10.88;5.68;;;17.70;68.90;;;;;;2346900;57;21050;-75
2022/06/08 07:58:50;;;;;;;10.20;5.70;;;17.80;69.20;;;;;;2347127;57;21568;-75
2022/06/08 08:01:18;;;;;;;7.70;5.00;;;17.80;69.20;;;;;;2347673;57;21122;-75
2022/06/08 08:03:45;;;;;;;6.22;4.57;;;17.90;68.30;;;;;;2347697;57;21045;-75
2022/06/08 08:06:13;;;;;;;8.95;5.45;;;18.00;68.10;;;;;;2351521;53;21536;-75
2022/06/08 08:08:40;;;;;;;9.50;4.90;;;18.10;68.30;;;;;;2347000;57;21049;-75
2022/06/08 08:11:08;;;;;;;8.55;5.25;;;18.10;68.10;;;;;;2347526;57;21116;-75
2022/06/08 08:13:37;;;;;;;9.32;4.60;;;18.20;68.00;;;;;;2346640;57;21045;-75
2022/06/08 08:16:06;;;;;;;9.60;5.25;;;18.30;66.90;;;;;;2347329;57;21349;-75
2022/06/08 08:18:34;;;;;;;8.43;5.65;;;18.30;66.80;;;;;;2347544;57;21122;-74
2022/06/08 08:21:03;;;;;;;9.77;6.15;;;18.40;66.60;;;;;;2347440;57;21104;-75
2022/06/08 08:23:31;;;;;;;6.80;4.80;;;18.50;66.30;;;;;;2347435;57;21037;-75
2022/06/08 08:25:58;;;;;;;9.70;5.90;;;18.50;66.00;;;;;;2347233;57;21097;-75
2022/06/08 08:28:26;;;;;;;8.40;4.90;;;18.60;65.90;;;;;;2347359;57;21122;-77
2022/06/08 08:30:53;;;;;;;8.23;4.97;;;18.70;65.10;;;;;;2347453;57;21101;-77
2022/06/08 08:33:21;;;;;;;8.10;4.93;;;18.80;64.70;;;;;;2346889;57;21128;-77
2022/06/08 08:35:50;;;;;;;9.13;4.65;;;18.80;63.70;;;;;;2347206;57;21037;-77
2022/06/08 08:38:19;;;;;;;8.40;4.62;;;18.90;64.20;;;;;;2347245;57;21025;-77
2022/06/08 08:40:49;;;;;;;9.10;4.93;;;19.00;64.50;;;;;;2346549;57;21112;-77
2022/06/08 08:43:20;;;;;;;8.52;5.22;;;19.10;64.40;;;;;;2346937;57;21532;-77
2022/06/08 08:46:05;;;;;;;9.15;5.22;;;19.20;64.50;;;;;;2346074;57;21656;-77
2022/06/08 08:48:40;;;;;;;9.82;5.50;;;19.20;64.40;;;;;;2346376;57;21116;-75
2022/06/08 08:51:18;;;;;;;9.27;5.22;;;19.40;64.20;;;;;;2346818;57;21133;-74
2022/06/08 08:53:56;;;;;;;11.60;6.12;;;19.40;63.60;;;;;;2346210;57;21109;-75
2022/06/08 08:56:30;;;;;;;8.82;5.50;;;19.50;62.50;;;;;;2346404;57;21053;-74
2022/06/08 08:58:59;;;;;;;9.88;6.30;;;19.50;61.80;;;;;;2346716;57;21057;-75
2022/06/08 09:01:30;;;;;;;12.02;6.40;;;19.50;62.10;;;;;;2379785;53;21050;-75
2022/06/08 09:04:03;;;;;;;7.43;5.40;;;19.40;62.50;;;;;;2434971;53;21029;-75
2022/06/08 09:06:33;;;;;;;13.77;7.73;;;19.40;62.10;;;;;;2346698;57;21120;-75
2022/06/08 09:09:05;;;;;;;12.07;7.05;;;19.30;62.10;;;;;;2346314;57;21057;-75
2022/06/08 09:11:36;;;;;;;8.23;6.03;;;19.30;61.80;;;;;;2346791;57;21691;-75
2022/06/08 09:14:08;;;;;;;8.45;5.93;;;19.30;61.60;;;;;;2347014;57;21038;-75
2022/06/08 09:16:39;;;;;;;11.27;7.20;;;19.30;60.40;;;;;;2346665;57;21036;-75
2022/06/08 09:19:26;;;;;;;12.15;7.53;;;19.30;60.90;;;;;;2345774;57;21409;-74
2022/06/08 09:21:59;;;;;;;10.25;6.62;;;19.20;61.20;;;;;;2346005;57;21120;-75
2022/06/08 09:24:34;;;;;;;8.55;5.15;;;19.20;61.80;;;;;;2346838;57;21113;-76
2022/06/08 09:27:15;;;;;;;9.73;5.82;;;19.20;61.50;;;;;;2346406;57;21045;-75
2022/06/08 09:29:53;;;;;;;8.60;6.22;;;19.10;60.90;;;;;;2346636;57;21109;-75
2022/06/08 09:32:30;;;;;;;7.93;5.15;;;19.10;60.30;;;;;;2446741;53;21088;-76
2022/06/08 09:37:36;;;;;;;8.55;5.30;;;19.10;61.60;;;;;;2328010;57;22119;-77
2022/06/08 09:40:06;;;;;;;7.62;6.32;;;19.10;62.70;;;;;;2321107;54;21107;-77
2022/06/08 09:42:47;;;;;;;9.45;6.75;;;19.10;62.20;;;;;;2320618;58;21120;-77
2022/06/08 09:45:34;;;;;;;8.80;6.18;;;19.10;61.30;;;;;;2320487;55;21107;-75
2022/06/08 09:51:28;;;;;;;9.98;6.18;;;19.20;62.40;;;;;;2320704;54;20976;-75
2022/06/08 09:54:09;;;;;;;11.27;6.68;;;19.20;63.50;;;;;;2320350;58;21032;-75
2022/06/08 09:56:51;;;;;;;8.60;6.30;;;19.30;63.60;;;;;;2318791;58;21648;-75
2022/06/08 09:59:33;;;;;;;11.12;6.97;;;19.30;64.00;;;;;;2320884;58;21811;-74
2022/06/08 10:02:11;;;;;;;8.40;7.28;;;19.30;64.40;;;;;;2320495;58;21036;-75
2022/06/08 10:04:51;;;;;;;9.57;7.43;;;19.40;64.70;;;;;;2319489;58;21043;-75
2022/06/08 10:07:27;;;;;;;12.70;7.87;;;19.50;63.80;;;;;;2319309;58;21049;-74
2022/06/08 10:10:13;;;;;;;10.85;7.22;;;19.60;63.10;;;;;;2320040;58;21057;-74
2022/06/08 10:12:45;;;;;;;17.95;9.20;;;19.70;63.60;;;;;;2325180;54;21056;-74
2022/06/08 10:15:22;;;;;;;13.87;8.43;;;19.80;63.80;;;;;;2320769;58;21052;-74
2022/06/08 10:17:56;;;;;;;15.63;9.82;;;19.90;64.00;;;;;;2320688;58;21506;-74
2022/06/08 10:20:30;;;;;;;14.07;9.13;;;20.00;63.50;;;;;;2320904;58;21047;-74
2022/06/08 10:23:06;;;;;;;11.68;8.63;;;20.10;63.20;;;;;;2320607;58;21036;-75
2022/06/08 10:25:41;;;;;;;12.40;8.55;;;20.20;63.30;;;;;;2320051;58;21124;-75
2022/06/08 10:28:18;;;;;;;10.13;8.57;;;20.20;62.60;;;;;;2320224;58;21087;-75
2022/06/08 10:30:54;;;;;;;11.65;9.07;;;20.30;61.60;;;;;;2320724;58;21143;-75
2022/06/08 10:33:27;;;;;;;11.73;7.57;;;20.40;61.90;;;;;;2321003;58;21128;-75
2022/06/08 10:35:56;;;;;;;10.83;7.97;;;20.50;61.80;;;;;;2464264;54;21561;-75
2022/06/08 10:38:27;;;;;;;11.77;8.13;;;20.70;61.90;;;;;;2320910;58;21698;-75
2022/06/08 10:40:59;;;;;;;9.15;7.00;;;20.80;61.30;;;;;;2319146;58;21044;-75
2022/06/08 10:43:29;;;;;;;12.15;8.52;;;20.90;59.90;;;;;;2320816;58;21048;-75
2022/06/08 10:46:01;;;;;;;9.13;7.70;;;21.00;59.80;;;;;;2320346;58;21538;-75
2022/06/08 10:48:44;;;;;;;9.90;7.72;;;21.10;59.80;;;;;;2320000;58;21120;-75
2022/06/08 10:54:53;;;;;;;9.73;7.03;;;21.30;60.20;;;;;;2440264;52;22034;-77
2022/06/08 10:57:42;;;;;;;7.75;6.55;;;21.40;59.40;;;;;;2346392;57;21663;-76
2022/06/08 11:03:56;;;;;;;9.73;7.43;;;21.60;59.00;;;;;;2271402;59;22088;-75
2022/06/08 11:06:54;;;;;;;9.27;7.50;;;21.70;58.30;;;;;;2291116;58;21135;-76
2022/06/08 11:09:43;;;;;;;10.30;7.97;;;21.80;57.70;;;;;;2291308;58;21084;-76
2022/06/08 11:12:27;;;;;;;11.80;7.12;;;21.90;58.80;;;;;;2291114;58;21061;-76
2022/06/08 11:15:01;;;;;;;8.73;7.57;;;22.00;58.70;;;;;;2291223;58;21084;-75
2022/06/08 11:20:14;;;;;;;9.45;6.68;;;22.10;58.10;;;;;;2355798;57;22556;-76
2022/06/08 11:22:45;;;;;;;8.98;5.75;;;22.30;58.50;;;;;;2442803;53;21037;-77
2022/06/08 11:25:19;;;;;;;10.02;7.00;;;22.40;58.30;;;;;;2347546;57;21045;-77
2022/06/08 11:28:22;;;;;;;6.97;5.53;;;22.50;57.00;;;;;;2349081;56;21057;-75
2022/06/08 11:30:52;;;;;;;7.35;5.50;;;22.60;57.20;;;;;;2556732;52;21051;-75
2022/06/08 11:33:21;;;;;;;9.00;6.57;;;22.70;56.70;;;;;;2435972;52;21517;-75
2022/06/08 11:36:14;;;;;;;8.73;6.15;;;22.80;56.40;;;;;;2374000;56;21086;-75
2022/06/08 11:39:01;;;;;;;9.50;5.80;;;22.90;56.20;;;;;;2374847;56;21125;-76
2022/06/08 11:41:41;;;;;;;7.43;6.00;;;22.90;55.30;;;;;;2374918;56;21530;-75
2022/06/08 11:44:17;;;;;;;10.18;6.47;;;23.00;54.60;;;;;;2374754;56;21604;-77
2022/06/08 11:46:47;;;;;;;7.03;5.65;;;22.90;55.10;;;;;;2374370;56;21121;-78
2022/06/08 11:49:38;;;;;;;7.85;5.28;;;23.00;54.70;;;;;;2374199;56;21206;-77
2022/06/08 11:52:33;;;;;;;6.22;4.35;;;23.10;55.00;;;;;;2374802;56;21050;-76
2022/06/08 11:55:12;;;;;;;7.62;5.82;;;23.10;54.50;;;;;;2375034;56;21118;-76
2022/06/08 11:57:43;;;;;;;6.20;5.45;;;23.10;54.20;;;;;;2334497;55;21079;-79
2022/06/08 12:00:25;;;;;;;9.48;6.30;;;23.30;54.90;;;;;;2241752;60;21068;-79
2022/06/08 12:02:57;;;;;;;8.07;5.40;;;23.30;54.00;;;;;;2241250;60;21120;-79
2022/06/08 12:05:27;;;;;;;5.78;4.75;;;23.40;54.30;;;;;;2240478;60;21068;-79
2022/06/08 12:08:08;;;;;;;7.78;6.03;;;23.50;54.40;;;;;;2241254;60;21067;-78
2022/06/08 12:10:36;;;;;;;6.18;5.43;;;23.50;53.20;;;;;;2242331;60;21153;-79
2022/06/08 12:13:11;;;;;;;6.03;5.40;;;23.60;53.20;;;;;;2242123;60;21088;-79
2022/06/08 12:15:48;;;;;;;6.10;5.50;;;23.60;53.20;;;;;;2241797;60;21160;-78
2022/06/08 12:18:38;;;;;;;6.75;6.00;;;23.60;53.20;;;;;;2242107;60;21120;-79
2022/06/08 12:21:13;;;;;;;7.32;5.43;;;23.70;52.80;;;;;;2241498;60;21176;-79
2022/06/08 12:23:45;;;;;;;7.53;6.03;;;23.80;52.70;;;;;;2241016;60;21084;-78
2022/06/08 12:26:22;;;;;;;7.20;5.78;;;23.90;52.70;;;;;;2464454;56;21624;-78
2022/06/08 12:29:03;;;;;;;9.30;5.35;;;23.90;52.70;;;;;;2242071;60;21103;-79
2022/06/08 12:31:32;;;;;;;10.10;6.32;;;24.00;52.70;;;;;;2241399;60;21136;-79
2022/06/08 12:36:53;;;;;;;6.53;5.60;;;24.00;52.60;;;;;;2603979;53;22129;-78
2022/06/08 12:39:28;;;;;;;9.73;6.05;;;24.10;54.00;;;;;;2365429;56;21106;-79
2022/06/08 12:41:56;;;;;;;7.18;6.15;;;24.30;53.20;;;;;;2372479;56;21164;-79
2022/06/08 12:44:26;;;;;;;12.15;6.82;;;24.40;52.70;;;;;;2372472;56;21039;-78
2022/06/08 12:46:59;;;;;;;7.95;5.82;;;24.40;52.20;;;;;;2372835;56;21901;-78
2022/06/08 12:49:38;;;;;;;6.65;5.80;;;24.40;51.70;;;;;;2374420;56;21561;-78
2022/06/08 12:52:20;;;;;;;9.00;6.45;;;24.50;51.60;;;;;;2374484;56;21051;-78
2022/06/08 12:54:48;;;;;;;8.40;6.40;;;24.50;51.60;;;;;;2372053;56;21130;-79
2022/06/08 12:57:19;;;;;;;6.05;5.30;;;24.50;51.20;;;;;;2372537;56;21122;-78
2022/06/08 12:59:50;;;;;;;6.85;5.72;;;24.50;51.70;;;;;;2372043;56;21051;-78
2022/06/08 13:02:20;;;;;;;7.53;6.53;;;24.60;51.70;;;;;;2373823;56;21522;-77
2022/06/08 13:04:48;;;;;;;8.57;5.65;;;24.70;51.10;;;;;;2375077;56;21110;-78
2022/06/08 13:07:19;;;;;;;7.03;5.93;;;24.70;50.70;;;;;;2375000;56;21051;-78
2022/06/08 13:09:48;;;;;;;7.65;5.65;;;24.80;50.70;;;;;;2374989;56;21043;-78
2022/06/08 13:12:21;;;;;;;5.90;5.30;;;24.90;51.70;;;;;;2375410;56;21518;-78
2022/06/08 13:14:49;;;;;;;7.22;5.47;;;25.00;51.90;;;;;;2374842;56;21712;-78
2022/06/08 13:17:16;;;;;;;6.43;5.00;;;25.10;51.30;;;;;;2374311;56;21035;-78
2022/06/08 13:19:43;;;;;;;6.18;5.25;;;25.20;50.50;;;;;;2374939;56;21124;-78
2022/06/08 13:22:12;;;;;;;6.68;5.65;;;25.20;50.90;;;;;;2374894;56;21776;-78
2022/06/08 13:24:40;;;;;;;6.95;5.18;;;25.10;50.70;;;;;;2375319;56;21037;-78
2022/06/08 13:27:14;;;;;;;6.75;5.40;;;25.10;51.00;;;;;;2374820;56;21035;-78
2022/06/08 13:29:41;;;;;;;6.35;5.75;;;25.10;50.30;;;;;;2375081;56;21031;-78
2022/06/08 13:32:17;;;;;;;5.80;5.10;;;25.10;49.60;;;;;;2374067;56;21055;-78
2022/06/08 13:34:45;;;;;;;9.02;5.45;;;25.10;49.50;;;;;;2374929;56;21043;-78
2022/06/08 13:37:23;;;;;;;6.05;4.82;;;25.20;50.30;;;;;;2375301;56;21054;-78